Pisco, Pisco Airport (SPSO)

NamePisco Airport
CityPisco
CountryPeru
ICAOSPSO
IATAPIO
Altitude12 m
CoordinatesGoogle Map
Live Air TrafficLiveATC.net
METARSPSO 251800Z 26011KT CAVOK 19/14 Q1016 RMK BIRD HAZARD RWY 22/04 PP000
2019-06-25 18:00:00 Wind: West-Southwest (260°) 5.66 m/s - Visibility: > 10000 m - Weather: CAVOK - Temperature: 19 °C - Dew point: 14 °C - Humidity: 72.9% - Pressure: 1016 hPa
Statistics

The table below shows the detailed information of all flights to/from Pisco, Pisco Airport (SPSO).